Time;durP1;ratioP1;P1;durP2;ratioP2;P2;SDS_P1;SDS_P2;PMS_P1;PMS_P2;Temp;Humidity;BMP_temperature;BMP_pressure;BME280_temperature;BME280_humidity;BME280_pressure;Samples;Min_cycle;Max_cycle;Signal;HPM_P1;HPM_P2
2022/01/15 00:01:07;;;;;;;34.90;11.75;;;;;;;0.88;80.41;98605.36;1799660;78;20996;-69
2022/01/15 00:03:34;;;;;;;9.18;3.33;;;;;;;0.91;83.28;98613.06;1794178;78;21032;-70
2022/01/15 00:06:04;;;;;;;17.40;6.20;;;;;;;0.91;81.61;98600.10;1814682;78;21917;-71
2022/01/15 00:08:31;;;;;;;32.93;12.50;;;;;;;0.92;82.34;98617.38;1799827;78;21031;-71
2022/01/15 00:10:57;;;;;;;33.83;11.53;;;;;;;0.91;82.52;98607.88;1810361;78;21152;-70
2022/01/15 00:13:28;;;;;;;22.52;7.58;;;;;;;0.93;82.66;98603.52;1802044;78;21044;-70
2022/01/15 00:16:04;;;;;;;9.95;3.62;;;;;;;0.91;81.35;98609.17;1801580;78;21052;-69
2022/01/15 00:18:40;;;;;;;19.50;6.80;;;;;;;0.91;79.90;98606.58;1783105;78;21599;-70
2022/01/15 00:20:50;;;;;;;24.80;8.40;;;;;;;0.92;80.29;98602.24;1804644;78;21063;-70
2022/01/15 00:23:16;;;;;;;19.60;5.72;;;;;;;0.91;79.24;98622.58;1791874;78;21127;-69
2022/01/15 00:25:43;;;;;;;28.70;9.50;;;;;;;0.92;79.45;98611.31;1782366;80;21028;-69
2022/01/15 00:28:10;;;;;;;10.85;4.28;;;;;;;0.92;79.28;98627.74;1782285;80;21067;-68
2022/01/15 00:30:37;;;;;;;18.50;6.17;;;;;;;0.93;78.48;98634.63;1788804;78;21539;-68
2022/01/15 00:33:05;;;;;;;37.80;12.23;;;;;;;0.92;78.55;98630.34;1822333;78;21000;-68
2022/01/15 00:35:33;;;;;;;36.75;13.32;;;;;;;0.94;79.29;98645.38;1824538;78;21126;-69
2022/01/15 00:38:01;;;;;;;6.45;1.45;;;;;;;0.94;78.67;98627.69;1824243;78;21054;-67
2022/01/15 00:40:31;;;;;;;30.50;9.03;;;;;;;0.94;77.35;98655.75;1824151;78;21055;-69
2022/01/15 00:42:57;;;;;;;16.30;2.30;;;;;;;0.94;79.81;98655.75;1824194;78;21078;-67
2022/01/15 00:45:24;;;;;;;18.23;6.27;;;;;;;0.95;78.65;98660.52;1824422;78;21090;-69
2022/01/15 00:47:51;;;;;;;15.03;4.87;;;;;;;0.94;79.90;98653.61;1824233;78;21483;-68
2022/01/15 00:50:18;;;;;;;33.35;10.93;;;;;;;0.93;79.67;98658.40;1824209;78;21035;-70
2022/01/15 00:52:45;;;;;;;27.42;9.15;;;;;;;0.90;81.02;98663.21;1824649;78;21019;-69
2022/01/15 00:55:13;;;;;;;19.10;7.55;;;;;;;0.91;82.86;98667.49;1819769;78;21024;-68
2022/01/15 00:57:40;;;;;;;15.30;5.50;;;;;;;0.91;81.76;98689.52;1824846;78;21579;-68
2022/01/15 01:00:09;;;;;;;21.82;7.53;;;;;;;0.87;80.19;98683.98;1824253;78;21093;-69
2022/01/15 01:02:36;;;;;;;31.02;11.00;;;;;;;0.88;85.60;98690.05;1824529;78;21043;-69
2022/01/15 01:05:05;;;;;;;21.12;8.70;;;;;;;0.80;86.44;98684.55;1824454;78;21052;-70
2022/01/15 01:07:31;;;;;;;21.70;7.83;;;;;;;0.75;86.97;98690.73;1824587;78;21302;-70
2022/01/15 01:23:09;;;;;;;24.17;7.47;;;;;;;0.49;89.81;98711.53;1824433;78;21559;-68
2022/01/15 01:25:41;;;;;;;10.15;3.50;;;;;;;0.46;87.63;98709.02;1824430;78;21094;-69
2022/01/15 01:28:13;;;;;;;14.63;6.20;;;;;;;0.48;87.40;98707.22;1823639;78;21021;-68
2022/01/15 01:30:46;;;;;;;16.70;5.58;;;;;;;0.48;85.52;98735.71;1823613;78;21035;-68
2022/01/15 01:36:08;;;;;;;17.10;6.15;;;;;;;0.48;88.33;98740.05;1817887;78;20195;-68
2022/01/15 01:38:34;;;;;;;44.88;14.63;;;;;;;0.47;90.37;98743.53;1821922;78;21087;-69
2022/01/15 01:40:59;;;;;;;18.40;7.58;;;;;;;0.41;93.56;98748.36;1823456;78;21000;-68
2022/01/15 01:43:41;;;;;;;65.42;22.25;;;;;;;0.32;96.75;98752.00;1824079;78;21031;-67
2022/01/15 01:48:32;;;;;;;41.02;12.73;;;;;;;0.15;100.00;98761.33;1809590;78;21114;-67
2022/01/15 01:50:58;;;;;;;14.33;3.80;;;;;;;0.06;100.00;98771.84;1824403;78;21463;-68
2022/01/15 01:53:25;;;;;;;75.85;26.60;;;;;;;-0.01;100.00;98784.47;1824237;78;21016;-67
2022/01/15 01:55:52;;;;;;;21.65;7.53;;;;;;;-0.10;100.00;98778.14;1824537;78;21023;-66
2022/01/15 01:58:18;;;;;;;20.32;6.53;;;;;;;-0.16;100.00;98765.28;1824217;78;21052;-67
2022/01/15 02:00:46;;;;;;;15.58;5.62;;;;;;;-0.23;100.00;98770.98;1824384;78;21043;-67
2022/01/15 02:03:12;;;;;;;20.90;7.90;;;;;;;-0.28;100.00;98782.70;1824308;78;21576;-69
2022/01/15 02:05:40;;;;;;;12.40;3.60;;;;;;;-0.28;100.00;98782.70;1824837;78;21007;-68
2022/01/15 02:08:06;;;;;;;15.68;6.20;;;;;;;-0.30;100.00;98779.72;1824181;78;21051;-69
2022/01/15 02:10:34;;;;;;;9.45;4.30;;;;;;;-0.29;100.00;98782.74;1824186;78;21051;-70
2022/01/15 02:13:02;;;;;;;16.77;5.10;;;;;;;-0.30;100.00;98775.84;1806484;78;21052;-70
2022/01/15 02:15:28;;;;;;;20.25;7.53;;;;;;;-0.30;100.00;98783.61;1807656;78;21659;-66
2022/01/15 02:17:55;;;;;;;11.40;3.67;;;;;;;-0.32;100.00;98770.71;1804805;78;21007;-67
2022/01/15 02:25:56;;;;;;;61.53;19.70;;;;;;;-0.35;100.00;98784.97;1822127;78;21107;-67
2022/01/15 02:28:28;;;;;;;8.03;2.92;;;;;;;-0.38;100.00;98786.31;1811681;78;21494;-67
2022/01/15 02:30:57;;;;;;;16.45;4.25;;;;;;;-0.36;100.00;98794.06;1799407;78;21515;-67
2022/01/15 02:33:24;;;;;;;27.93;10.80;;;;;;;-0.33;100.00;98796.15;1807747;78;21106;-68
2022/01/15 02:35:51;;;;;;;16.20;5.37;;;;;;;-0.28;99.19;98796.93;1809597;78;21016;-66
2022/01/15 02:38:18;;;;;;;36.73;11.45;;;;;;;-0.19;96.09;98798.98;1812391;78;21103;-67
2022/01/15 02:40:44;;;;;;;35.20;10.78;;;;;;;-0.10;95.61;98807.90;1804870;78;21829;-68
2022/01/15 02:43:15;;;;;;;7.78;2.85;;;;;;;-0.01;92.88;98815.08;1779055;78;21027;-67
2022/01/15 02:45:45;;;;;;;27.75;12.30;;;;;;;0.06;90.83;98813.25;1809460;78;21078;-69
2022/01/15 02:48:17;;;;;;;5.90;2.22;;;;;;;0.14;93.30;98821.77;1803666;78;21118;-68
2022/01/15 02:50:45;;;;;;;20.50;7.53;;;;;;;0.19;91.68;98817.36;1801370;78;21059;-69
2022/01/15 02:53:13;;;;;;;17.45;6.78;;;;;;;0.20;91.14;98820.80;1794166;78;21051;-68
2022/01/15 02:55:44;;;;;;;13.80;3.47;;;;;;;0.19;91.25;98821.25;1811518;78;21087;-71
2022/01/15 02:58:11;;;;;;;72.95;26.35;;;;;;;0.19;91.93;98835.48;1794107;78;22272;-70
2022/01/15 03:00:39;;;;;;;10.93;3.70;;;;;;;0.19;96.53;98843.25;1809733;78;21060;-68
2022/01/15 03:03:05;;;;;;;63.50;22.52;;;;;;;0.19;94.70;98840.66;1816422;78;21074;-68
2022/01/15 03:05:32;;;;;;;39.95;14.47;;;;;;;0.17;95.41;98850.19;1817337;78;21122;-69
2022/01/15 03:07:59;;;;;;;32.48;11.75;;;;;;;0.16;95.51;98853.67;1816993;78;21056;-67
2022/01/15 03:10:25;;;;;;;17.42;5.72;;;;;;;0.13;97.24;98856.28;1801271;78;21087;-68
2022/01/15 03:12:58;;;;;;;25.02;8.90;;;;;;;0.13;96.37;98852.40;1807565;78;21087;-68
2022/01/15 03:15:21;;;;;;;30.92;10.63;;;;;;;0.12;97.00;98852.00;1817160;78;21035;-69
2022/01/15 03:17:47;;;;;;;15.55;4.92;;;;;;;0.12;97.00;98858.47;1820519;78;21147;-70
2022/01/15 03:20:16;;;;;;;33.80;11.48;;;;;;;0.12;97.24;98853.30;1822720;78;21062;-68
2022/01/15 03:22:43;;;;;;;19.10;8.03;;;;;;;0.12;97.55;98862.36;1823879;78;21091;-68
2022/01/15 03:25:11;;;;;;;25.37;9.70;;;;;;;0.12;97.26;98866.23;1824242;78;21075;-67
2022/01/15 03:27:38;;;;;;;24.70;8.70;;;;;;;0.13;98.43;98858.88;1824272;78;21015;-70
2022/01/15 03:30:08;;;;;;;26.00;8.73;;;;;;;0.13;97.58;98873.11;1824054;78;21149;-68
2022/01/15 03:32:35;;;;;;;22.58;7.70;;;;;;;0.12;97.97;98876.59;1824419;78;21099;-70
2022/01/15 03:35:02;;;;;;;16.50;5.87;;;;;;;0.13;97.81;98867.94;1824178;78;21401;-69
2022/01/15 03:37:29;;;;;;;8.23;2.37;;;;;;;0.13;97.54;98874.41;1824437;78;21515;-70
2022/01/15 03:39:55;;;;;;;110.57;38.48;;;;;;;0.13;97.45;98869.23;1824172;78;21070;-69
2022/01/15 03:42:24;;;;;;;78.45;29.50;;;;;;;0.12;98.34;98871.41;1824636;78;21294;-69
2022/01/15 03:44:50;;;;;;;9.03;3.22;;;;;;;0.12;97.41;98877.89;1824254;78;21035;-68
2022/01/15 03:47:16;;;;;;;103.22;36.98;;;;;;;0.11;97.35;98874.86;1824827;78;21040;-69
2022/01/15 03:49:43;;;;;;;18.12;5.58;;;;;;;0.12;99.63;98884.36;1824251;78;21134;-69
2022/01/15 03:52:11;;;;;;;12.20;3.35;;;;;;;0.13;98.60;98886.05;1824350;78;21087;-68
2022/01/15 03:54:37;;;;;;;33.18;12.13;;;;;;;0.13;98.08;98887.35;1824327;78;21191;-68
2022/01/15 03:57:06;;;;;;;31.93;12.10;;;;;;;0.13;98.44;98882.17;1824424;78;21023;-68
2022/01/15 03:59:34;;;;;;;26.35;10.00;;;;;;;0.14;97.02;98884.34;1824199;78;21605;-70
2022/01/15 04:02:02;;;;;;;17.15;6.00;;;;;;;0.13;96.57;98882.17;1824499;78;21004;-68
2022/01/15 04:04:28;;;;;;;27.32;9.48;;;;;;;0.11;97.40;98877.45;1824057;78;21071;-70
2022/01/15 04:06:54;;;;;;;13.50;4.47;;;;;;;0.15;96.12;98884.75;1821642;78;21090;-69
2022/01/15 04:09:21;;;;;;;11.88;4.50;;;;;;;0.15;95.76;98895.95;1819011;78;21568;-68
2022/01/15 04:11:48;;;;;;;19.10;7.75;;;;;;;0.16;95.46;98891.20;1823416;78;21647;-69
2022/01/15 04:14:14;;;;;;;18.98;7.35;;;;;;;0.18;95.59;98891.16;1820544;78;21120;-68
2022/01/15 04:16:43;;;;;;;23.07;8.53;;;;;;;0.19;94.47;98883.39;1817519;78;21051;-71
2022/01/15 04:19:09;;;;;;;7.92;3.25;;;;;;;0.22;95.33;98894.13;1818553;78;21084;-68
2022/01/15 04:21:36;;;;;;;9.15;2.92;;;;;;;0.24;93.99;98894.13;1817180;78;21078;-69
2022/01/15 04:24:05;;;;;;;6.87;1.50;;;;;;;0.20;93.41;98879.06;1810863;78;21102;-69
2022/01/15 04:26:31;;;;;;;81.55;28.15;;;;;;;0.26;93.77;98888.48;1820106;78;21508;-69
2022/01/15 04:29:06;;;;;;;156.55;53.92;;;;;;;0.27;94.01;98886.30;1807320;78;22289;-69
2022/01/15 04:31:47;;;;;;;67.50;19.85;;;;;;;0.29;95.25;98893.60;1819185;78;21094;-69
2022/01/15 04:34:05;;;;;;;61.35;22.20;;;;;;;0.29;94.37;98890.56;1807003;78;21587;-68
2022/01/15 04:38:07;;;;;;;25.43;8.67;;;;;;;0.33;93.57;98892.23;1781163;79;23139;-71
2022/01/15 04:40:32;;;;;;;7.77;3.27;;;;;;;0.30;92.77;98894.01;1769659;79;21029;-70
2022/01/15 04:42:58;;;;;;;8.35;3.60;;;;;;;0.33;93.13;98901.75;1780286;80;21210;-72
2022/01/15 04:45:25;;;;;;;11.15;4.08;;;;;;;0.34;92.87;98906.03;1771301;80;21504;-68
2022/01/15 04:47:51;;;;;;;25.90;8.75;;;;;;;0.36;92.75;98903.84;1775902;79;21573;-67
2022/01/15 04:50:20;;;;;;;16.73;5.78;;;;;;;0.38;92.98;98899.94;1763834;80;21011;-68
2022/01/15 04:52:47;;;;;;;14.75;5.33;;;;;;;0.39;93.93;98903.81;1741161;81;21108;-69
2022/01/15 04:55:14;;;;;;;9.83;3.40;;;;;;;0.38;92.86;98890.42;1733607;81;21171;-67
2022/01/15 04:57:42;;;;;;;35.05;12.28;;;;;;;0.39;92.26;98906.81;1744072;81;21004;-69
2022/01/15 05:00:12;;;;;;;20.02;7.28;;;;;;;0.35;93.50;98904.73;1722678;82;21074;-68
2022/01/15 05:02:39;;;;;;;8.85;4.30;;;;;;;0.34;92.41;98908.17;1723554;82;21050;-70
2022/01/15 05:05:07;;;;;;;12.53;3.70;;;;;;;0.32;91.41;98899.61;1733036;82;21092;-70
2022/01/15 05:07:33;;;;;;;12.78;4.53;;;;;;;0.32;92.19;98910.37;1723648;82;21103;-69
2022/01/15 05:10:00;;;;;;;24.12;8.48;;;;;;;0.30;91.68;98914.72;1721163;82;21064;-70
2022/01/15 05:12:31;;;;;;;19.52;6.97;;;;;;;0.26;90.39;98915.67;1686983;83;22177;-69
2022/01/15 05:14:57;;;;;;;10.10;3.12;;;;;;;0.25;91.10;98914.79;1702018;83;21155;-70
2022/01/15 05:17:23;;;;;;;11.73;4.10;;;;;;;0.23;90.35;98906.63;1696781;83;21089;-70
2022/01/15 05:19:50;;;;;;;14.23;4.30;;;;;;;0.20;90.16;98916.16;1717093;82;21132;-70
2022/01/15 05:22:18;;;;;;;6.60;2.85;;;;;;;0.20;89.84;98919.19;1715411;82;21378;-69
2022/01/15 05:24:45;;;;;;;8.95;3.08;;;;;;;0.16;89.58;98920.98;1712677;82;21548;-68
2022/01/15 05:27:11;;;;;;;7.83;2.47;;;;;;;0.16;89.25;98917.52;1717314;82;21064;-69
2022/01/15 05:29:39;;;;;;;5.90;2.42;;;;;;;0.09;89.22;98921.95;1725827;82;21072;-70
2022/01/15 05:32:06;;;;;;;13.03;3.42;;;;;;;0.05;89.20;98922.86;1718904;82;21033;-70
2022/01/15 05:34:34;;;;;;;18.35;8.13;;;;;;;0.01;89.32;98930.25;1727886;82;21579;-69
2022/01/15 05:37:02;;;;;;;5.47;2.00;;;;;;;-0.03;89.65;98929.42;1717619;81;21101;-68
2022/01/15 05:39:28;;;;;;;9.95;3.95;;;;;;;-0.03;89.75;98937.62;1712476;83;21096;-68
2022/01/15 05:41:55;;;;;;;21.65;9.25;;;;;;;-0.03;90.21;98924.69;1703568;83;21092;-68
2022/01/15 05:44:21;;;;;;;26.30;10.23;;;;;;;-0.04;91.16;98935.93;1698208;83;21530;-69
2022/01/15 05:46:48;;;;;;;69.32;22.67;;;;;;;-0.04;91.25;98935.93;1707324;83;21053;-69
2022/01/15 05:49:15;;;;;;;27.30;9.73;;;;;;;-0.03;91.69;98941.52;1707243;83;21105;-69
2022/01/15 05:51:41;;;;;;;30.57;11.25;;;;;;;-0.02;93.01;98941.95;1697942;83;21092;-68
2022/01/15 05:54:10;;;;;;;24.63;8.78;;;;;;;0.01;92.64;98939.30;1705694;83;22102;-68
2022/01/15 05:56:40;;;;;;;27.37;10.15;;;;;;;0.05;92.61;98943.58;1709567;83;21822;-69
2022/01/15 05:59:07;;;;;;;24.00;7.40;;;;;;;0.09;91.98;98936.19;1701502;81;21116;-70
2022/01/15 06:01:35;;;;;;;12.23;4.85;;;;;;;0.14;92.53;98949.92;1702261;83;21058;-69
2022/01/15 06:04:03;;;;;;;11.88;4.08;;;;;;;0.17;90.83;98956.34;1706670;83;21497;-69
2022/01/15 06:06:29;;;;;;;5.92;1.47;;;;;;;0.21;91.07;98954.58;1710575;82;21104;-69
2022/01/15 06:08:56;;;;;;;12.88;4.87;;;;;;;0.26;91.01;98966.17;1709897;83;21831;-69
2022/01/15 06:11:24;;;;;;;17.85;6.28;;;;;;;0.32;90.29;98960.88;1683106;84;21082;-72
2022/01/15 06:13:51;;;;;;;19.42;6.50;;;;;;;0.37;89.55;98958.66;1704482;83;21667;-70
2022/01/15 06:16:18;;;;;;;41.88;15.88;;;;;;;0.45;89.98;98955.95;1743640;81;21090;-70
2022/01/15 06:18:44;;;;;;;69.07;23.07;;;;;;;0.50;89.04;98963.20;1747246;81;21577;-70
2022/01/15 06:21:11;;;;;;;29.77;10.63;;;;;;;0.57;89.21;98954.90;1750502;81;21533;-70
2022/01/15 06:23:39;;;;;;;11.33;2.40;;;;;;;0.61;88.45;98954.83;1745295;81;21593;-72
2022/01/15 06:26:05;;;;;;;54.93;18.67;;;;;;;0.67;87.49;98963.38;1744793;81;21102;-70
2022/01/15 06:28:32;;;;;;;40.75;15.65;;;;;;;0.72;89.44;98965.48;1743079;81;21059;-71
2022/01/15 06:30:59;;;;;;;14.23;5.08;;;;;;;0.77;88.33;98963.22;1743361;81;21050;-70
2022/01/15 06:33:25;;;;;;;15.18;4.70;;;;;;;0.84;87.41;98965.28;1746421;81;21504;-70
2022/01/15 06:35:52;;;;;;;30.72;10.60;;;;;;;0.93;87.40;98976.79;1747567;81;21030;-71
2022/01/15 06:38:18;;;;;;;19.65;8.03;;;;;;;1.02;86.17;98980.52;1749730;80;21101;-71
2022/01/15 06:40:44;;;;;;;15.85;5.80;;;;;;;1.10;87.12;98974.35;1741052;81;21074;-72
2022/01/15 06:43:11;;;;;;;6.83;3.33;;;;;;;1.16;84.23;98970.36;1749084;81;21307;-70
2022/01/15 06:45:37;;;;;;;14.93;5.12;;;;;;;1.24;82.93;98982.32;1747288;81;21353;-72
2022/01/15 06:48:07;;;;;;;10.63;3.05;;;;;;;1.30;81.75;98972.72;1745646;81;21629;-71
2022/01/15 06:50:37;;;;;;;4.58;1.37;;;;;;;1.34;80.98;98992.53;1747694;80;21097;-71
2022/01/15 06:53:03;;;;;;;8.40;2.70;;;;;;;1.33;79.98;98998.59;1750609;81;21031;-71
2022/01/15 06:55:31;;;;;;;5.37;2.60;;;;;;;1.33;80.16;98996.84;1754307;81;21073;-71
2022/01/15 06:57:57;;;;;;;3.62;1.27;;;;;;;1.35;80.13;98995.08;1750460;81;21663;-68
2022/01/15 07:00:25;;;;;;;3.65;1.02;;;;;;;1.36;80.44;98998.11;1752718;81;22092;-70
2022/01/15 07:02:52;;;;;;;6.30;1.87;;;;;;;1.39;80.57;99004.53;1746569;81;22194;-70
2022/01/15 07:05:21;;;;;;;3.83;1.50;;;;;;;1.43;80.84;99002.75;1742991;81;21583;-68
2022/01/15 07:07:52;;;;;;;6.65;1.70;;;;;;;1.48;80.93;99010.45;1718020;81;21097;-71
2022/01/15 07:10:19;;;;;;;7.35;2.67;;;;;;;1.59;81.13;99005.92;1749064;81;21661;-71
2022/01/15 07:12:47;;;;;;;14.60;5.35;;;;;;;1.66;80.99;99008.36;1741924;81;21011;-71
2022/01/15 07:15:13;;;;;;;14.13;5.12;;;;;;;1.75;81.26;99007.75;1740729;81;21069;-71
2022/01/15 07:17:46;;;;;;;10.20;3.65;;;;;;;1.81;81.40;99004.60;1757163;81;21053;-72
2022/01/15 07:20:14;;;;;;;15.85;4.58;;;;;;;1.87;80.68;99013.58;1742085;81;21050;-70
2022/01/15 07:22:41;;;;;;;4.22;1.35;;;;;;;2.24;79.56;99011.53;1752908;81;22072;-70
2022/01/15 07:25:08;;;;;;;6.37;2.27;;;;;;;2.85;77.69;99012.34;1737790;81;21073;-70
2022/01/15 07:27:36;;;;;;;6.05;2.00;;;;;;;3.10;77.23;99025.16;1742806;81;21471;-72
2022/01/15 07:30:05;;;;;;;4.83;1.65;;;;;;;3.71;75.92;99016.70;1752655;81;21054;-71
2022/01/15 07:32:33;;;;;;;10.32;2.55;;;;;;;4.46;72.83;99003.27;1753051;81;27062;-71
2022/01/15 07:34:59;;;;;;;6.10;2.15;;;;;;;4.82;66.76;99032.14;1744028;81;21512;-71
2022/01/15 07:37:26;;;;;;;5.33;1.55;;;;;;;4.79;64.65;99023.11;1736860;80;21620;-71
2022/01/15 07:39:53;;;;;;;6.33;1.67;;;;;;;4.56;60.97;99013.84;1742189;80;21014;-70
2022/01/15 07:42:20;;;;;;;8.38;3.05;;;;;;;4.30;61.56;99025.03;1752134;80;21074;-71
2022/01/15 07:44:46;;;;;;;6.17;2.55;;;;;;;4.07;62.24;99040.02;1749719;80;21609;-72
2022/01/15 07:47:13;;;;;;;25.32;9.00;;;;;;;3.79;62.58;99032.95;1754744;80;21123;-70
2022/01/15 07:49:39;;;;;;;25.95;11.33;;;;;;;3.56;63.42;99042.23;1753137;80;21058;-72
2022/01/15 07:52:06;;;;;;;8.88;3.02;;;;;;;3.36;64.56;99041.45;1756960;80;21116;-70
2022/01/15 07:54:32;;;;;;;24.25;10.13;;;;;;;3.27;65.72;99044.73;1753339;80;21031;-72
2022/01/15 07:56:59;;;;;;;47.60;15.83;;;;;;;3.15;66.36;99040.24;1756443;80;21334;-71
2022/01/15 07:59:26;;;;;;;14.15;4.12;;;;;;;3.11;67.39;99055.51;1751650;80;21824;-70
2022/01/15 08:01:52;;;;;;;27.13;7.95;;;;;;;3.13;66.87;99051.13;1754196;80;21779;-70
2022/01/15 08:04:18;;;;;;;8.83;2.95;;;;;;;3.06;66.96;99063.87;1756537;80;21085;-70
2022/01/15 08:06:45;;;;;;;12.78;4.10;;;;;;;2.99;67.06;99050.61;1758705;80;21534;-69
2022/01/15 08:09:12;;;;;;;10.43;3.62;;;;;;;2.86;66.59;99073.88;1744252;80;21630;-70
2022/01/15 08:11:39;;;;;;;9.58;2.98;;;;;;;2.79;67.69;99074.45;1750237;80;22146;-74
2022/01/15 08:14:05;;;;;;;11.70;3.87;;;;;;;2.97;68.88;99077.09;1755337;79;21096;-69
2022/01/15 08:16:33;;;;;;;8.58;2.90;;;;;;;3.25;68.02;99077.75;1755798;80;21546;-69
2022/01/15 08:19:00;;;;;;;8.40;3.00;;;;;;;3.38;67.39;99075.23;1750234;80;21025;-73
2022/01/15 08:21:26;;;;;;;9.20;3.55;;;;;;;3.41;66.77;99080.38;1743152;80;21081;-70
2022/01/15 08:23:54;;;;;;;10.58;3.37;;;;;;;3.97;66.07;99084.56;1749114;80;21143;-69
2022/01/15 08:26:20;;;;;;;8.48;2.83;;;;;;;4.43;65.99;99085.50;1757338;80;21093;-68
2022/01/15 08:28:47;;;;;;;7.92;2.27;;;;;;;4.73;63.53;99079.83;1754466;80;21479;-70
2022/01/15 08:31:13;;;;;;;9.20;3.30;;;;;;;4.73;62.63;99075.45;1752935;80;21047;-70
2022/01/15 08:33:40;;;;;;;19.92;7.05;;;;;;;4.55;62.94;99095.56;1767638;80;21044;-70
2022/01/15 08:36:07;;;;;;;16.65;5.40;;;;;;;4.26;63.99;99090.73;1749965;80;21527;-69
2022/01/15 08:38:33;;;;;;;21.23;6.78;;;;;;;4.07;65.22;99097.34;1748548;80;21038;-69
2022/01/15 08:41:00;;;;;;;8.53;3.80;;;;;;;4.03;65.86;99095.73;1754334;81;21022;-70
2022/01/15 08:43:26;;;;;;;62.40;21.68;;;;;;;3.94;65.75;99097.67;1751041;81;21046;-69
2022/01/15 08:45:53;;;;;;;19.20;7.85;;;;;;;3.88;66.89;99096.98;1744489;81;21096;-69
2022/01/15 08:48:21;;;;;;;10.13;2.65;;;;;;;3.81;67.45;99101.48;1733265;81;21304;-70
2022/01/15 08:50:49;;;;;;;25.85;9.38;;;;;;;3.69;67.43;99106.56;1738124;81;21109;-70
2022/01/15 08:53:17;;;;;;;9.13;2.83;;;;;;;3.49;67.95;99110.11;1746161;81;21066;-70
2022/01/15 08:55:44;;;;;;;14.75;4.80;;;;;;;3.33;68.04;99112.23;1746215;81;21061;-70
2022/01/15 08:58:11;;;;;;;37.78;12.20;;;;;;;3.23;68.80;99092.53;1741446;81;21109;-70
2022/01/15 09:00:38;;;;;;;21.15;6.65;;;;;;;3.10;68.62;99098.00;1743535;81;22021;-70
2022/01/15 09:03:08;;;;;;;18.37;6.17;;;;;;;2.99;69.12;99110.43;1740214;81;21065;-71
2022/01/15 09:05:35;;;;;;;21.07;8.63;;;;;;;2.86;69.95;99118.09;1742451;81;21034;-71
2022/01/15 09:08:03;;;;;;;25.25;8.33;;;;;;;2.74;70.39;99136.11;1746131;81;21117;-69
2022/01/15 09:10:30;;;;;;;14.50;5.12;;;;;;;2.62;69.93;99112.95;1742422;81;21065;-72
2022/01/15 09:12:58;;;;;;;5.22;2.30;;;;;;;2.51;70.84;99123.59;1734613;81;21638;-69
2022/01/15 09:15:25;;;;;;;20.97;8.40;;;;;;;2.43;72.51;99130.67;1746075;81;21101;-70
2022/01/15 09:17:51;;;;;;;10.00;3.17;;;;;;;2.37;73.35;99133.38;1749057;81;21041;-70
2022/01/15 09:20:18;;;;;;;14.15;5.17;;;;;;;2.34;72.88;99137.34;1753766;81;21081;-70
2022/01/15 09:22:45;;;;;;;28.83;10.95;;;;;;;2.33;73.77;99139.09;1735563;81;21037;-70
2022/01/15 09:25:12;;;;;;;24.32;7.97;;;;;;;2.35;73.98;99126.05;1741341;81;21217;-70
2022/01/15 09:30:24;;;;;;;46.88;16.67;;;;;;;2.27;76.31;99136.16;1738198;81;21050;-69
2022/01/15 09:32:53;;;;;;;67.03;22.85;;;;;;;2.25;76.76;99149.61;1737858;80;21082;-70
2022/01/15 09:35:27;;;;;;;85.53;30.85;;;;;;;2.21;79.16;99147.11;1748414;81;21065;-70
2022/01/15 09:37:54;;;;;;;17.48;6.33;;;;;;;2.21;79.16;99147.11;1726866;80;21080;-68
2022/01/15 09:40:22;;;;;;;47.67;18.65;;;;;;;2.18;79.47;99149.32;1769229;80;21021;-71
2022/01/15 09:42:49;;;;;;;4.47;1.47;;;;;;;2.15;79.79;99148.09;1771200;80;21061;-72
2022/01/15 09:45:17;;;;;;;22.65;8.33;;;;;;;2.14;80.45;99139.90;1764263;80;21065;-70
2022/01/15 09:47:44;;;;;;;13.22;5.95;;;;;;;2.16;80.07;99153.69;1773875;80;21061;-72
2022/01/15 09:50:14;;;;;;;21.50;8.15;;;;;;;2.15;79.54;99139.00;1768962;80;21640;-71
2022/01/15 09:52:40;;;;;;;9.50;3.47;;;;;;;2.15;80.48;99142.89;1759336;80;21041;-70
2022/01/15 09:55:10;;;;;;;23.90;7.65;;;;;;;2.21;79.99;99136.30;1769421;80;21529;-71
2022/01/15 09:57:38;;;;;;;11.95;4.22;;;;;;;2.27;78.54;99145.25;1775283;80;21049;-69
2022/01/15 10:00:11;;;;;;;9.18;2.72;;;;;;;2.34;78.47;99154.23;1764228;80;21583;-70
2022/01/15 10:02:40;;;;;;;13.58;2.30;;;;;;;2.37;77.55;99155.47;1771501;80;21154;-71
2022/01/15 10:05:08;;;;;;;6.45;2.00;;;;;;;2.30;77.04;99162.09;1764621;80;21060;-71
2022/01/15 10:07:35;;;;;;;4.45;1.85;;;;;;;2.22;76.94;99158.78;1771559;80;21087;-71
2022/01/15 10:10:16;;;;;;;7.15;3.30;;;;;;;2.16;77.29;99153.69;1776056;80;22099;-70
2022/01/15 10:12:44;;;;;;;10.05;2.50;;;;;;;2.11;77.50;99160.71;1760134;80;21536;-71
2022/01/15 10:15:13;;;;;;;10.95;1.65;;;;;;;2.02;78.32;99160.88;1758675;80;21029;-70
2022/01/15 10:17:40;;;;;;;11.08;2.62;;;;;;;1.95;79.18;99160.58;1731542;80;21033;-71
2022/01/15 10:20:12;;;;;;;4.42;1.40;;;;;;;1.83;79.99;99166.39;1768324;80;21057;-69
2022/01/15 10:22:44;;;;;;;4.92;1.80;;;;;;;1.75;80.76;99164.38;1763575;80;21021;-70
2022/01/15 10:25:18;;;;;;;6.47;2.27;;;;;;;1.69;81.63;99173.55;1771421;80;21120;-70
2022/01/15 10:27:44;;;;;;;9.70;2.42;;;;;;;1.68;81.28;99166.67;1763548;80;21571;-71
2022/01/15 10:30:21;;;;;;;9.03;3.45;;;;;;;1.66;82.09;99161.94;1764641;80;21058;-70
2022/01/15 10:33:01;;;;;;;12.35;5.15;;;;;;;1.71;81.87;99157.52;1763417;80;21057;-69
2022/01/15 10:35:43;;;;;;;12.53;4.10;;;;;;;1.76;81.67;99153.10;1759328;80;21080;-71
2022/01/15 10:38:16;;;;;;;27.05;9.48;;;;;;;1.82;82.67;99150.41;1763867;80;21060;-71
2022/01/15 10:40:53;;;;;;;48.40;16.07;;;;;;;1.85;80.61;99145.61;1741094;81;21178;-69
2022/01/15 10:43:20;;;;;;;21.48;7.87;;;;;;;1.88;82.24;99161.12;1746102;81;21069;-70
2022/01/15 10:45:56;;;;;;;12.33;5.37;;;;;;;1.92;81.38;99160.64;1748522;81;21066;-72
2022/01/15 10:48:29;;;;;;;16.80;5.85;;;;;;;1.95;81.13;99158.83;1755408;81;21057;-70
2022/01/15 10:51:02;;;;;;;9.90;2.83;;;;;;;1.95;79.95;99167.06;1729446;81;21046;-70
2022/01/15 10:53:35;;;;;;;8.75;3.67;;;;;;;1.94;79.08;99173.16;1747548;81;21142;-70
2022/01/15 10:56:04;;;;;;;18.55;8.08;;;;;;;1.95;79.03;99161.88;1740757;81;21145;-70
2022/01/15 10:58:31;;;;;;;13.03;3.47;;;;;;;1.97;80.56;99174.39;1748605;81;21011;-70
2022/01/15 11:00:57;;;;;;;32.03;11.28;;;;;;;1.97;80.56;99174.39;1742288;81;21704;-69
2022/01/15 11:03:41;;;;;;;11.50;4.35;;;;;;;1.98;80.71;99182.58;1749897;81;21609;-69
2022/01/15 11:06:08;;;;;;;6.85;2.65;;;;;;;2.02;81.96;99186.84;1753592;81;21112;-69
2022/01/15 11:08:43;;;;;;;27.75;11.80;;;;;;;2.02;81.96;99186.84;1745048;81;21066;-70
2022/01/15 11:11:13;;;;;;;18.73;6.45;;;;;;;2.05;85.11;99185.52;1740431;81;21074;-70
2022/01/15 11:13:42;;;;;;;24.35;9.98;;;;;;;2.04;81.99;99202.81;1738405;81;21304;-70
2022/01/15 11:16:18;;;;;;;5.33;2.02;;;;;;;2.06;82.46;99197.61;1751844;81;21046;-70
2022/01/15 11:18:49;;;;;;;15.75;5.55;;;;;;;2.05;81.27;99212.78;1740056;81;21490;-69
2022/01/15 11:21:18;;;;;;;14.10;6.55;;;;;;;2.05;80.95;99215.38;1751142;81;21053;-69
2022/01/15 11:23:46;;;;;;;15.15;5.33;;;;;;;2.00;81.07;99219.77;1745052;81;21102;-71
2022/01/15 11:26:15;;;;;;;18.57;3.95;;;;;;;1.93;81.33;99215.12;1741859;81;21097;-71
2022/01/15 11:28:43;;;;;;;10.30;4.12;;;;;;;1.93;81.33;99215.12;1744737;81;21130;-69
2022/01/15 11:31:12;;;;;;;42.80;14.85;;;;;;;1.91;81.50;99235.50;1750644;81;22041;-69
2022/01/15 11:33:43;;;;;;;14.83;5.58;;;;;;;1.87;82.48;99234.27;1738156;81;21051;-70
2022/01/15 11:36:10;;;;;;;82.85;29.55;;;;;;;1.87;82.17;99236.86;1717966;81;21061;-69
2022/01/15 11:38:45;;;;;;;52.90;21.15;;;;;;;1.87;82.53;99247.25;1697375;81;21066;-70
2022/01/15 11:41:30;;;;;;;40.25;14.25;;;;;;;1.88;82.86;99247.65;1757293;81;21053;-69
2022/01/15 11:44:00;;;;;;;30.40;10.58;;;;;;;1.88;82.81;99255.44;1742321;81;21149;-70
2022/01/15 11:46:42;;;;;;;18.75;6.72;;;;;;;1.87;82.65;99253.73;1728329;81;21007;-69
2022/01/15 11:49:36;;;;;;;18.35;7.30;;;;;;;1.86;82.77;99244.25;1749008;81;21061;-70
2022/01/15 11:52:13;;;;;;;50.23;19.52;;;;;;;1.87;84.05;99240.76;1745332;81;22254;-71
2022/01/15 11:55:06;;;;;;;53.58;19.70;;;;;;;1.87;84.05;99240.76;1739929;81;21100;-70
2022/01/15 11:57:41;;;;;;;44.00;16.95;;;;;;;1.91;83.71;99247.19;1743315;81;21763;-69
2022/01/15 12:00:26;;;;;;;27.00;9.08;;;;;;;2.00;85.87;99245.74;1745650;81;21105;-71
2022/01/15 12:03:08;;;;;;;11.00;3.95;;;;;;;2.22;84.26;99256.64;1741851;81;21077;-71
2022/01/15 12:05:40;;;;;;;15.83;4.60;;;;;;;2.51;80.99;99243.99;1735026;81;21590;-71